createdAt,value
2023-01-20T00:01:24.649Z,101129.00
2023-01-20T00:03:53.683Z,101121.00
2023-01-20T00:06:22.091Z,101130.00
2023-01-20T00:08:52.331Z,101134.00
2023-01-20T00:11:19.586Z,101140.00
2023-01-20T00:13:46.232Z,101134.00
2023-01-20T00:16:13.204Z,101130.00
2023-01-20T00:18:40.906Z,101135.00
2023-01-20T00:21:14.528Z,101133.00
2023-01-20T00:23:41.374Z,101143.00
2023-01-20T00:26:13.902Z,101141.00
2023-01-20T00:28:40.577Z,101147.00
2023-01-20T00:31:16.184Z,101145.00
2023-01-20T00:33:43.556Z,101145.00
2023-01-20T00:36:11.350Z,101146.00
2023-01-20T00:38:38.205Z,101142.00
2023-01-20T00:41:05.260Z,101139.00
2023-01-20T00:43:32.199Z,101140.00
2023-01-20T00:45:58.991Z,101137.00
2023-01-20T00:48:25.812Z,101137.00
2023-01-20T00:50:52.502Z,101142.00
2023-01-20T00:53:19.223Z,101143.00
2023-01-20T00:55:46.085Z,101144.00
2023-01-20T00:58:12.728Z,101139.00
2023-01-20T01:00:39.449Z,101146.00
2023-01-20T01:03:06.430Z,101150.00
2023-01-20T01:05:33.851Z,101154.00
2023-01-20T01:08:00.546Z,101159.00
2023-01-20T01:10:27.179Z,101161.00
2023-01-20T01:12:53.965Z,101158.00
2023-01-20T01:15:20.758Z,101158.00
2023-01-20T01:17:47.608Z,101163.00
2023-01-20T01:20:14.662Z,101163.00
2023-01-20T01:22:41.300Z,101163.00
2023-01-20T01:25:08.214Z,101166.00
2023-01-20T01:27:35.208Z,101161.00
2023-01-20T01:30:01.928Z,101167.00
2023-01-20T01:32:28.976Z,101174.00
2023-01-20T01:34:55.634Z,101178.00
2023-01-20T01:37:22.434Z,101176.00
2023-01-20T01:39:49.047Z,101184.00
2023-01-20T01:42:18.826Z,101185.00
2023-01-20T01:45:10.331Z,101186.00
2023-01-20T01:47:38.965Z,101192.00
2023-01-20T01:50:06.835Z,101201.00
2023-01-20T01:52:34.188Z,101208.00
2023-01-20T01:55:02.216Z,101204.00
2023-01-20T01:57:31.697Z,101202.00
2023-01-20T01:59:58.406Z,101203.00
2023-01-20T02:02:25.184Z,101208.00
2023-01-20T02:04:51.899Z,101206.00
2023-01-20T02:07:21.137Z,101200.00
2023-01-20T02:09:47.854Z,101201.00
2023-01-20T02:12:18.868Z,101196.00
2023-01-20T02:14:51.743Z,101197.00
2023-01-20T02:17:35.370Z,101197.00
2023-01-20T02:20:05.001Z,101190.00
2023-01-20T02:22:52.739Z,101195.00
2023-01-20T02:25:53.010Z,101191.00
2023-01-20T02:28:41.524Z,101187.00
2023-01-20T02:31:46.602Z,101176.00
2023-01-20T02:34:19.337Z,101185.00
2023-01-20T02:36:49.332Z,101184.00
2023-01-20T02:39:27.058Z,101199.00
2023-01-20T02:42:08.724Z,101204.00
2023-01-20T02:44:53.536Z,101199.00
2023-01-20T02:47:35.258Z,101201.00
2023-01-20T02:50:15.918Z,101206.00
2023-01-20T02:52:45.916Z,101206.00
2023-01-20T02:55:19.794Z,101195.00
2023-01-20T02:57:55.892Z,101199.00
2023-01-20T03:00:28.813Z,101200.00
2023-01-20T03:02:57.882Z,101207.00
2023-01-20T03:05:30.113Z,101208.00
2023-01-20T03:07:59.709Z,101199.00
2023-01-20T03:10:31.494Z,101200.00
2023-01-20T03:13:05.680Z,101206.00
2023-01-20T03:16:06.021Z,101199.00
2023-01-20T03:18:34.447Z,101201.00
2023-01-20T03:21:03.941Z,101200.00
2023-01-20T03:23:34.858Z,101194.00
2023-01-20T03:26:06.942Z,101189.00
2023-01-20T03:28:33.649Z,101204.00
2023-01-20T03:31:05.772Z,101202.00
2023-01-20T03:33:33.324Z,101199.00
2023-01-20T03:36:00.136Z,101197.00
2023-01-20T03:38:26.805Z,101206.00
2023-01-20T03:41:13.668Z,101211.00
2023-01-20T03:43:57.508Z,101202.00
2023-01-20T03:46:46.174Z,101217.00
2023-01-20T03:49:24.149Z,101209.00
2023-01-20T03:51:53.398Z,101216.00
2023-01-20T03:54:26.331Z,101209.00
2023-01-20T03:57:04.531Z,101202.00
2023-01-20T03:59:37.439Z,101206.00
2023-01-20T04:02:07.809Z,101204.00
2023-01-20T04:04:37.164Z,101205.00
2023-01-20T04:07:06.592Z,101210.00
2023-01-20T04:09:36.726Z,101208.00
2023-01-20T04:12:03.579Z,101210.00
2023-01-20T04:14:30.373Z,101215.00
2023-01-20T04:16:58.385Z,101215.00
2023-01-20T04:19:26.232Z,101223.00
2023-01-20T04:21:58.918Z,101229.00
2023-01-20T04:24:29.633Z,101224.00
2023-01-20T04:26:56.383Z,101218.00
2023-01-20T04:29:23.009Z,101222.00
2023-01-20T04:31:49.711Z,101224.00
2023-01-20T04:34:16.433Z,101222.00
2023-01-20T04:36:43.077Z,101223.00
2023-01-20T04:39:10.159Z,101228.00
2023-01-20T04:41:36.914Z,101221.00
2023-01-20T04:44:03.542Z,101224.00
2023-01-20T04:46:30.239Z,101223.00
2023-01-20T04:48:56.908Z,101232.00
2023-01-20T04:51:23.602Z,101238.00
2023-01-20T04:53:50.193Z,101236.00
2023-01-20T04:56:16.991Z,101237.00
2023-01-20T04:58:43.786Z,101242.00
2023-01-20T05:01:10.551Z,101245.00
2023-01-20T05:03:37.299Z,101244.00
2023-01-20T05:06:04.084Z,101241.00
2023-01-20T05:08:30.681Z,101240.00
2023-01-20T05:10:57.403Z,101246.00
2023-01-20T05:13:24.089Z,101252.00
2023-01-20T05:15:50.791Z,101252.00
2023-01-20T05:18:17.425Z,101251.00
2023-01-20T05:20:48.448Z,101246.00
2023-01-20T05:23:16.504Z,101255.00
2023-01-20T05:25:51.887Z,101258.00
2023-01-20T05:28:18.894Z,101258.00
2023-01-20T05:30:46.217Z,101262.00
2023-01-20T05:33:13.017Z,101260.00
2023-01-20T05:35:40.115Z,101257.00
2023-01-20T05:38:07.111Z,101255.00
2023-01-20T05:40:33.764Z,101254.00
2023-01-20T05:43:01.412Z,101247.00
2023-01-20T05:45:29.109Z,101261.00
2023-01-20T05:47:57.982Z,101269.00
2023-01-20T05:50:27.976Z,101275.00
2023-01-20T05:52:54.713Z,101270.00
2023-01-20T05:55:21.804Z,101268.00
2023-01-20T05:57:48.493Z,101267.00
2023-01-20T06:00:15.384Z,101278.00
2023-01-20T06:02:42.169Z,101270.00
2023-01-20T06:05:08.982Z,101282.00
2023-01-20T06:07:35.810Z,101280.00
2023-01-20T06:10:02.669Z,101278.00
2023-01-20T06:12:29.345Z,101285.00
2023-01-20T06:14:55.967Z,101280.00
2023-01-20T06:17:23.019Z,101283.00
2023-01-20T06:19:49.707Z,101284.00
2023-01-20T06:22:16.376Z,101285.00
2023-01-20T06:24:43.024Z,101282.00
2023-01-20T06:27:12.220Z,101287.00
2023-01-20T06:29:40.144Z,101287.00
2023-01-20T06:32:06.785Z,101283.00
2023-01-20T06:34:33.409Z,101289.00
2023-01-20T06:37:01.817Z,101279.00
2023-01-20T06:39:28.651Z,101282.00
2023-01-20T06:41:59.471Z,101282.00
2023-01-20T06:44:27.007Z,101280.00
2023-01-20T06:46:54.320Z,101296.00
2023-01-20T06:49:21.025Z,101303.00
2023-01-20T06:51:48.838Z,101298.00
2023-01-20T06:54:16.081Z,101305.00
2023-01-20T06:56:42.880Z,101300.00
2023-01-20T06:59:11.150Z,101302.00
2023-01-20T07:01:38.021Z,101305.00
2023-01-20T07:04:05.064Z,101311.00
2023-01-20T07:06:40.730Z,101315.00
2023-01-20T07:09:12.029Z,101328.00
2023-01-20T07:11:39.528Z,101326.00
2023-01-20T07:14:06.890Z,101315.00
2023-01-20T07:16:34.458Z,101326.00
2023-01-20T07:19:01.273Z,101329.00
2023-01-20T07:21:28.125Z,101339.00
2023-01-20T07:23:55.009Z,101339.00
2023-01-20T07:26:24.332Z,101334.00
2023-01-20T07:28:52.019Z,101343.00
2023-01-20T07:31:21.833Z,101345.00
2023-01-20T07:33:49.090Z,101348.00
2023-01-20T07:36:16.888Z,101344.00
2023-01-20T07:38:46.478Z,101352.00
2023-01-20T07:41:16.475Z,101356.00
2023-01-20T07:43:46.442Z,101350.00
2023-01-20T07:46:14.444Z,101350.00
2023-01-20T07:48:41.784Z,101357.00
2023-01-20T07:51:10.545Z,101361.00
2023-01-20T07:53:42.228Z,101348.00
2023-01-20T07:56:20.448Z,101365.00
2023-01-20T07:58:49.250Z,101370.00
2023-01-20T08:01:19.450Z,101369.00
2023-01-20T08:03:46.758Z,101373.00
2023-01-20T08:06:15.898Z,101376.00
2023-01-20T08:08:42.923Z,101376.00
2023-01-20T08:11:12.008Z,101381.00
2023-01-20T08:13:39.585Z,101393.00
2023-01-20T08:16:08.789Z,101390.00
2023-01-20T08:18:36.590Z,101381.00
2023-01-20T08:21:06.630Z,101389.00
2023-01-20T08:23:34.378Z,101387.00
2023-01-20T08:26:03.248Z,101401.00
2023-01-20T08:28:37.040Z,101400.00
2023-01-20T08:31:13.915Z,101397.00
2023-01-20T08:33:45.196Z,101409.00
2023-01-20T08:36:15.033Z,101409.00
2023-01-20T08:38:42.561Z,101406.00
2023-01-20T08:41:11.474Z,101406.00
2023-01-20T08:43:38.239Z,101414.00
2023-01-20T08:46:11.520Z,101412.00
2023-01-20T08:48:39.399Z,101414.00
2023-01-20T08:51:17.236Z,101407.00
2023-01-20T08:53:44.092Z,101410.00
2023-01-20T08:56:12.061Z,101417.00
2023-01-20T08:58:39.620Z,101414.00
2023-01-20T09:01:15.205Z,101413.00
2023-01-20T09:03:45.053Z,101424.00
2023-01-20T09:06:16.256Z,101419.00
2023-01-20T09:08:43.520Z,101430.00
2023-01-20T09:11:16.457Z,101422.00
2023-01-20T09:13:43.413Z,101429.00
2023-01-20T09:16:13.099Z,101421.00
2023-01-20T09:18:40.534Z,101429.00
2023-01-20T09:21:07.642Z,101438.00
2023-01-20T09:23:35.767Z,101438.00
2023-01-20T09:26:04.714Z,101434.00
2023-01-20T09:28:31.775Z,101442.00
2023-01-20T09:31:06.577Z,101436.00
2023-01-20T09:33:36.207Z,101444.00
2023-01-20T09:36:04.667Z,101448.00
2023-01-20T09:38:49.815Z,101455.00
2023-01-20T09:41:54.712Z,101451.00
2023-01-20T09:44:43.877Z,101457.00
2023-01-20T09:47:26.156Z,101466.00
2023-01-20T09:50:26.519Z,101474.00
2023-01-20T09:53:05.118Z,101465.00
2023-01-20T09:55:55.005Z,101470.00
2023-01-20T09:58:30.768Z,101467.00
2023-01-20T10:01:31.029Z,101477.00
2023-01-20T10:04:11.149Z,101486.00
2023-01-20T10:07:16.770Z,101481.00
2023-01-20T10:09:52.556Z,101482.00
2023-01-20T10:12:27.774Z,101493.00
2023-01-20T10:15:09.577Z,101481.00
2023-01-20T10:17:39.276Z,101487.00
2023-01-20T10:20:46.634Z,101483.00
2023-01-20T10:23:29.409Z,101480.00
2023-01-20T10:26:17.257Z,101494.00
2023-01-20T10:28:49.663Z,101499.00
2023-01-20T10:31:25.381Z,101499.00
2023-01-20T10:33:55.541Z,101499.00
2023-01-20T10:36:28.660Z,101507.00
2023-01-20T10:38:59.677Z,101490.00
2023-01-20T10:41:39.304Z,101494.00
2023-01-20T10:44:12.225Z,101501.00
2023-01-20T10:47:00.759Z,101503.00
2023-01-20T10:49:46.270Z,101510.00
2023-01-20T10:52:37.541Z,101511.00
2023-01-20T10:55:24.719Z,101515.00
2023-01-20T10:58:13.985Z,101512.00
2023-01-20T11:00:42.412Z,101511.00
2023-01-20T11:03:15.196Z,101515.00
2023-01-20T11:05:43.124Z,101520.00
2023-01-20T11:08:19.410Z,101519.00
2023-01-20T11:10:49.359Z,101516.00
2023-01-20T11:13:16.028Z,101507.00
2023-01-20T11:15:48.594Z,101508.00
2023-01-20T11:18:15.205Z,101514.00
2023-01-20T11:20:59.700Z,101511.00
2023-01-20T11:23:38.354Z,101511.00
2023-01-20T11:26:12.439Z,101503.00
2023-01-20T11:28:45.883Z,101500.00
2023-01-20T11:31:12.724Z,101495.00
2023-01-20T11:33:39.363Z,101494.00
2023-01-20T11:36:14.829Z,101502.00
2023-01-20T11:38:49.788Z,101498.00
2023-01-20T11:41:31.188Z,101494.00
2023-01-20T11:44:00.010Z,101501.00
2023-01-20T11:46:32.399Z,101503.00
2023-01-20T11:49:18.393Z,101494.00
2023-01-20T11:51:53.570Z,101494.00
2023-01-20T11:54:23.826Z,101494.00
2023-01-20T11:57:05.293Z,101499.00
2023-01-20T11:59:36.793Z,101494.00
2023-01-20T12:02:09.235Z,101504.00
2023-01-20T12:04:44.826Z,101507.00
2023-01-20T12:07:23.913Z,101504.00
2023-01-20T12:09:54.546Z,101502.00
2023-01-20T12:12:30.474Z,101498.00
2023-01-20T12:15:06.073Z,101510.00
2023-01-20T12:17:56.570Z,101494.00
2023-01-20T12:20:23.804Z,101494.00
2023-01-20T12:23:07.633Z,101491.00
2023-01-20T12:25:43.318Z,101479.00
2023-01-20T12:28:22.020Z,101492.00
2023-01-20T12:30:54.808Z,101488.00
2023-01-20T12:33:30.853Z,101496.00
2023-01-20T12:36:16.842Z,101505.00
2023-01-20T12:39:09.406Z,101506.00
2023-01-20T12:41:36.039Z,101504.00
2023-01-20T12:44:24.420Z,101509.00
2023-01-20T12:47:09.364Z,101498.00
2023-01-20T12:50:09.391Z,101497.00
2023-01-20T12:52:39.162Z,101499.00
2023-01-20T12:55:23.371Z,101498.00
2023-01-20T12:57:57.349Z,101497.00
2023-01-20T13:00:34.427Z,101502.00
2023-01-20T13:03:26.053Z,101492.00
2023-01-20T13:06:07.985Z,101499.00
2023-01-20T13:09:08.043Z,101494.00
2023-01-20T13:12:06.614Z,101499.00
2023-01-20T13:14:44.360Z,101490.00
2023-01-20T13:17:29.899Z,101495.00
2023-01-20T13:20:02.676Z,101498.00
2023-01-20T13:22:30.522Z,101505.00
2023-01-20T13:25:00.201Z,101505.00
2023-01-20T13:27:30.365Z,101504.00
2023-01-20T13:29:59.623Z,101507.00
2023-01-20T13:32:33.283Z,101503.00
2023-01-20T13:35:02.218Z,101515.00
2023-01-20T13:37:38.722Z,101514.00
2023-01-20T13:40:37.255Z,101504.00
2023-01-20T13:43:22.460Z,101499.00
2023-01-20T13:46:07.696Z,101501.00
2023-01-20T13:48:38.747Z,101499.00
2023-01-20T13:51:27.245Z,101500.00
2023-01-20T13:53:53.886Z,101501.00
2023-01-20T13:56:32.897Z,101501.00
2023-01-20T13:58:59.571Z,101498.00
2023-01-20T14:01:27.815Z,101513.00
2023-01-20T14:04:04.964Z,101508.00
2023-01-20T14:06:36.156Z,101506.00
2023-01-20T14:09:03.926Z,101513.00
2023-01-20T14:11:31.472Z,101517.00
2023-01-20T14:14:08.255Z,101519.00
2023-01-20T14:16:35.053Z,101525.00
2023-01-20T14:19:29.861Z,101518.00
2023-01-20T14:22:26.646Z,101528.00
2023-01-20T14:24:57.298Z,101525.00
2023-01-20T14:27:31.990Z,101533.00
2023-01-20T14:30:16.191Z,101540.00
2023-01-20T14:32:43.050Z,101535.00
2023-01-20T14:35:16.212Z,101540.00
2023-01-20T14:37:43.905Z,101538.00
2023-01-20T14:40:10.522Z,101545.00
2023-01-20T14:42:38.814Z,101546.00
2023-01-20T14:45:20.098Z,101560.00
2023-01-20T14:47:47.334Z,101561.00
2023-01-20T14:50:20.132Z,101556.00
2023-01-20T14:52:47.505Z,101561.00
2023-01-20T14:55:40.709Z,101568.00
2023-01-20T14:58:09.929Z,101561.00
2023-01-20T15:00:43.439Z,101563.00
2023-01-20T15:03:11.734Z,101566.00
2023-01-20T15:05:52.949Z,101558.00
2023-01-20T15:08:25.999Z,101558.00
2023-01-20T15:11:14.643Z,101555.00
2023-01-20T15:13:43.260Z,101562.00
2023-01-20T15:16:12.938Z,101556.00
2023-01-20T15:18:40.341Z,101561.00
2023-01-20T15:21:44.423Z,101569.00
2023-01-20T15:24:30.602Z,101570.00
2023-01-20T15:27:00.238Z,101578.00
2023-01-20T15:29:36.925Z,101575.00
2023-01-20T15:32:12.625Z,101576.00
2023-01-20T15:34:39.301Z,101588.00
2023-01-20T15:37:20.918Z,101577.00
2023-01-20T15:39:47.682Z,101587.00
2023-01-20T15:42:15.440Z,101588.00
2023-01-20T15:44:42.122Z,101593.00
2023-01-20T15:47:30.865Z,101597.00
2023-01-20T15:49:58.053Z,101599.00
2023-01-20T15:52:24.782Z,101592.00
2023-01-20T15:54:51.511Z,101602.00
2023-01-20T15:57:18.874Z,101601.00
2023-01-20T15:59:46.161Z,101612.00
2023-01-20T16:02:21.205Z,101618.00
2023-01-20T16:04:47.827Z,101614.00
2023-01-20T16:07:17.255Z,101613.00
2023-01-20T16:09:44.081Z,101613.00
2023-01-20T16:12:15.260Z,101613.00
2023-01-20T16:14:42.652Z,101608.00
2023-01-20T16:17:14.961Z,101609.00
2023-01-20T16:19:41.976Z,101612.00
2023-01-20T16:22:08.838Z,101612.00
2023-01-20T16:24:35.642Z,101600.00
2023-01-20T16:27:04.383Z,101614.00
2023-01-20T16:29:31.790Z,101607.00
2023-01-20T16:31:58.467Z,101621.00
2023-01-20T16:34:25.213Z,101641.00
2023-01-20T16:36:51.826Z,101629.00
2023-01-20T16:39:18.443Z,101633.00
2023-01-20T16:41:49.496Z,101637.00
2023-01-20T16:44:16.947Z,101649.00
2023-01-20T16:46:46.830Z,101630.00
2023-01-20T16:49:14.054Z,101643.00
2023-01-20T16:51:41.106Z,101658.00
2023-01-20T16:54:09.504Z,101647.00
2023-01-20T16:56:36.195Z,101634.00
2023-01-20T16:59:03.175Z,101640.00
2023-01-20T17:01:30.638Z,101641.00
2023-01-20T17:04:00.004Z,101651.00
2023-01-20T17:06:31.638Z,101659.00
2023-01-20T17:08:59.866Z,101668.00
2023-01-20T17:11:37.263Z,101671.00
2023-01-20T17:14:06.390Z,101670.00
2023-01-20T17:16:33.290Z,101663.00
2023-01-20T17:19:01.123Z,101667.00
2023-01-20T17:21:30.434Z,101668.00
2023-01-20T17:24:00.428Z,101674.00
2023-01-20T17:26:27.504Z,101670.00
2023-01-20T17:28:55.916Z,101672.00
2023-01-20T17:31:23.143Z,101673.00
2023-01-20T17:33:50.218Z,101681.00
2023-01-20T17:36:17.363Z,101688.00
2023-01-20T17:38:44.331Z,101692.00
2023-01-20T17:41:12.067Z,101700.00
2023-01-20T17:43:46.009Z,101696.00
2023-01-20T17:46:16.953Z,101701.00
2023-01-20T17:48:44.370Z,101703.00
2023-01-20T17:51:17.661Z,101711.00
2023-01-20T17:53:44.917Z,101711.00
2023-01-20T17:56:13.777Z,101712.00
2023-01-20T17:58:42.430Z,101712.00
2023-01-20T18:01:17.937Z,101723.00
2023-01-20T18:03:46.135Z,101719.00
2023-01-20T18:06:15.157Z,101728.00
2023-01-20T18:08:42.689Z,101725.00
2023-01-20T18:11:15.228Z,101728.00
2023-01-20T18:13:42.619Z,101736.00
2023-01-20T18:16:11.857Z,101746.00
2023-01-20T18:18:39.978Z,101741.00
2023-01-20T18:21:18.223Z,101748.00
2023-01-20T18:23:46.120Z,101745.00
2023-01-20T18:26:16.139Z,101745.00
2023-01-20T18:28:42.942Z,101751.00
2023-01-20T18:31:15.478Z,101758.00
2023-01-20T18:33:45.310Z,101777.00
2023-01-20T18:36:17.815Z,101779.00
2023-01-20T18:38:48.806Z,101787.00
2023-01-20T18:41:15.405Z,101802.00
2023-01-20T18:43:42.137Z,101803.00
2023-01-20T18:46:09.693Z,101811.00
2023-01-20T18:48:40.918Z,101814.00
2023-01-20T18:51:10.283Z,101816.00
2023-01-20T18:53:36.991Z,101823.00
2023-01-20T18:56:07.093Z,101823.00
2023-01-20T18:58:34.893Z,101835.00
2023-01-20T19:01:06.285Z,101842.00
2023-01-20T19:03:34.039Z,101843.00
2023-01-20T19:06:20.972Z,101850.00
2023-01-20T19:08:50.771Z,101865.00
2023-01-20T19:11:22.955Z,101883.00
2023-01-20T19:13:50.997Z,101897.00
2023-01-20T19:16:19.370Z,101896.00
2023-01-20T19:18:52.542Z,101905.00
2023-01-20T19:21:19.328Z,101912.00
2023-01-20T19:23:53.315Z,101928.00
2023-01-20T19:26:21.489Z,101937.00
2023-01-20T19:28:55.043Z,101952.00
2023-01-20T19:31:21.772Z,101956.00
2023-01-20T19:33:51.159Z,101963.00
2023-01-20T19:36:19.032Z,101977.00
2023-01-20T19:38:45.853Z,101979.00
2023-01-20T19:41:18.397Z,101990.00
2023-01-20T19:43:45.829Z,101998.00
2023-01-20T19:46:15.000Z,101993.00
2023-01-20T19:48:42.156Z,102019.00
2023-01-20T19:51:11.763Z,102027.00
2023-01-20T19:53:38.800Z,102033.00
2023-01-20T19:56:14.286Z,102033.00
2023-01-20T19:58:41.946Z,102045.00
2023-01-20T20:01:14.146Z,102052.00
2023-01-20T20:03:41.358Z,102059.00
2023-01-20T20:06:23.132Z,102064.00
2023-01-20T20:08:50.957Z,102069.00
2023-01-20T20:11:17.779Z,102080.00
2023-01-20T20:13:44.700Z,102084.00
2023-01-20T20:16:11.765Z,102084.00
2023-01-20T20:18:38.467Z,102084.00
2023-01-20T20:21:06.783Z,102095.00
2023-01-20T20:23:33.376Z,102101.00
2023-01-20T20:26:00.006Z,102118.00
2023-01-20T20:28:28.425Z,102106.00
2023-01-20T20:30:58.374Z,102111.00
2023-01-20T20:33:25.135Z,102128.00
2023-01-20T20:35:52.121Z,102141.00
2023-01-20T20:38:18.863Z,102149.00
2023-01-20T20:40:45.576Z,102151.00
2023-01-20T20:43:12.254Z,102170.00
2023-01-20T20:45:38.940Z,102167.00
2023-01-20T20:48:05.893Z,102168.00
2023-01-20T20:50:32.527Z,102166.00
2023-01-20T20:52:59.239Z,102174.00
2023-01-20T20:55:26.299Z,102183.00
2023-01-20T20:57:53.578Z,102191.00
2023-01-20T21:00:23.568Z,102198.00
2023-01-20T21:02:50.597Z,102210.00
2023-01-20T21:05:18.992Z,102205.00
2023-01-20T21:07:46.273Z,102207.00
2023-01-20T21:10:16.403Z,102219.00
2023-01-20T21:12:44.071Z,102216.00
2023-01-20T21:15:11.749Z,102229.00
2023-01-20T21:17:38.950Z,102237.00
2023-01-20T21:20:07.357Z,102245.00
2023-01-20T21:22:34.777Z,102255.00
2023-01-20T21:25:01.602Z,102267.00
2023-01-20T21:27:28.271Z,102258.00
2023-01-20T21:29:54.907Z,102265.00
2023-01-20T21:32:21.500Z,102269.00
2023-01-20T21:34:48.268Z,102278.00
2023-01-20T21:37:14.981Z,102286.00
2023-01-20T21:39:41.605Z,102289.00
2023-01-20T21:42:09.158Z,102292.00
2023-01-20T21:44:36.569Z,102290.00
2023-01-20T21:47:07.722Z,102298.00
2023-01-20T21:49:53.491Z,102298.00
2023-01-20T21:52:40.952Z,102306.00
2023-01-20T21:55:10.236Z,102312.00
2023-01-20T21:57:40.377Z,102308.00
2023-01-20T22:00:08.821Z,102320.00
2023-01-20T22:02:35.515Z,102329.00
2023-01-20T22:05:02.356Z,102331.00
2023-01-20T22:07:29.014Z,102335.00
2023-01-20T22:09:58.234Z,102335.00
2023-01-20T22:12:25.043Z,102356.00
2023-01-20T22:14:51.708Z,102355.00
2023-01-20T22:17:18.374Z,102359.00
2023-01-20T22:19:45.003Z,102360.00
2023-01-20T22:22:13.487Z,102369.00
2023-01-20T22:24:41.775Z,102373.00
2023-01-20T22:27:08.503Z,102376.00
2023-01-20T22:29:35.117Z,102390.00
2023-01-20T22:32:03.330Z,102398.00
2023-01-20T22:34:30.139Z,102399.00
2023-01-20T22:36:58.006Z,102400.00
2023-01-20T22:39:24.602Z,102411.00
2023-01-20T22:41:51.305Z,102411.00
2023-01-20T22:44:18.016Z,102411.00
2023-01-20T22:46:44.823Z,102414.00
2023-01-20T22:49:11.600Z,102421.00
2023-01-20T22:51:38.238Z,102428.00
2023-01-20T22:54:05.074Z,102429.00
2023-01-20T22:56:32.713Z,102428.00
2023-01-20T22:59:00.524Z,102442.00
2023-01-20T23:01:32.674Z,102440.00
2023-01-20T23:04:02.259Z,102447.00
2023-01-20T23:06:32.802Z,102452.00
2023-01-20T23:09:00.697Z,102460.00
2023-01-20T23:11:27.765Z,102463.00
2023-01-20T23:13:54.639Z,102457.00
2023-01-20T23:16:23.025Z,102461.00
2023-01-20T23:18:51.508Z,102470.00
2023-01-20T23:21:19.114Z,102484.00
2023-01-20T23:23:45.916Z,102474.00
2023-01-20T23:26:18.788Z,102476.00
2023-01-20T23:28:46.338Z,102479.00
2023-01-20T23:31:15.866Z,102475.00
2023-01-20T23:33:44.107Z,102483.00
2023-01-20T23:36:13.769Z,102487.00
2023-01-20T23:38:40.461Z,102487.00
2023-01-20T23:41:07.267Z,102493.00
2023-01-20T23:43:34.284Z,102498.00
2023-01-20T23:46:03.070Z,102506.00
2023-01-20T23:48:30.270Z,102519.00
2023-01-20T23:50:59.903Z,102518.00
2023-01-20T23:53:28.805Z,102533.00
2023-01-20T23:56:01.972Z,102545.00
2023-01-20T23:58:29.025Z,102548.00
